Eureka Springs, Arkansas
Current Conditions -  °F | °C
As of 12:57 PM on Wednesday 17 Dec 2014 (Local Time) from KROG Reporting Station
Light Rain Light Rain  
Wind Chill: 29°   Ceiling: 6000
Heat Index: 35°   Visibility: 10mi
Dew Point: 28°   Wind: 7mph
Humidity: 76%   Direction: 90°E
Pressure: 30.24"   Gusts: NA
Location:  36.4°N, 93.74°W
Report Text: KROG 171857Z 09006KT 10SM -RA BKN060 OVC080 02/M02 A3024 RMK AO2 RAB53 SLP251 P0000 T00171022
Loading
Personal Weather Stations






























Interactive Weather Map New forecast layout! Learn more

10-Day Weather Forecast

Advertisements
Track Severe Weather on mobile